createdAt,value
2022-11-13T00:02:18.646Z,8.70
2022-11-13T00:04:45.535Z,8.70
2022-11-13T00:07:12.448Z,8.60
2022-11-13T00:09:39.331Z,8.60
2022-11-13T00:12:06.120Z,8.60
2022-11-13T00:14:32.973Z,8.60
2022-11-13T00:16:59.839Z,8.50
2022-11-13T00:19:26.749Z,8.50
2022-11-13T00:21:55.030Z,8.50
2022-11-13T00:24:25.650Z,8.40
2022-11-13T00:26:52.551Z,8.40
2022-11-13T00:29:19.401Z,8.40
2022-11-13T00:31:46.281Z,8.30
2022-11-13T00:34:45.852Z,8.20
2022-11-13T00:37:00.034Z,8.20
2022-11-13T00:39:26.948Z,8.20
2022-11-13T00:41:53.895Z,8.20
2022-11-13T00:44:20.813Z,8.10
2022-11-13T00:46:47.689Z,8.10
2022-11-13T00:49:14.553Z,8.20
2022-11-13T00:51:41.495Z,8.10
2022-11-13T00:54:08.342Z,8.20
2022-11-13T00:56:35.249Z,8.10
2022-11-13T00:59:02.126Z,8.10
2022-11-13T01:01:29.003Z,8.10
2022-11-13T01:03:56.022Z,8.10
2022-11-13T01:06:24.567Z,8.20
2022-11-13T01:08:54.199Z,8.20
2022-11-13T01:11:22.582Z,8.20
2022-11-13T01:13:50.242Z,8.20
2022-11-13T01:16:18.030Z,8.20
2022-11-13T01:18:44.952Z,8.20
2022-11-13T01:21:13.509Z,8.20
2022-11-13T01:23:40.636Z,8.20
2022-11-13T01:26:13.472Z,8.20
2022-11-13T01:28:43.068Z,8.20
2022-11-13T01:31:11.616Z,8.10
2022-11-13T01:33:38.850Z,8.10
2022-11-13T01:36:07.770Z,8.10
2022-11-13T01:38:36.876Z,8.00
2022-11-13T01:41:04.856Z,8.00
2022-11-13T01:43:33.541Z,7.90
2022-11-13T01:46:00.556Z,7.80
2022-11-13T01:48:31.910Z,7.80
2022-11-13T01:50:58.876Z,7.80
2022-11-13T01:53:26.741Z,7.80
2022-11-13T01:55:53.593Z,7.80
2022-11-13T01:58:20.638Z,7.80
2022-11-13T02:00:47.476Z,7.80
2022-11-13T02:03:17.239Z,7.80
2022-11-13T02:05:44.230Z,7.80
2022-11-13T02:08:11.134Z,7.80
2022-11-13T02:10:38.013Z,7.80
2022-11-13T02:13:04.935Z,7.90
2022-11-13T02:15:33.242Z,7.90
2022-11-13T02:18:00.690Z,7.80
2022-11-13T02:20:32.808Z,7.90
2022-11-13T02:23:09.189Z,7.80
2022-11-13T02:25:36.807Z,7.80
2022-11-13T02:28:03.670Z,7.80
2022-11-13T02:30:31.949Z,7.80
2022-11-13T02:32:59.261Z,7.80
2022-11-13T02:35:28.861Z,7.80
2022-11-13T02:37:56.450Z,7.80
2022-11-13T02:40:24.499Z,7.70
2022-11-13T02:42:51.353Z,7.70
2022-11-13T02:45:18.313Z,7.70
2022-11-13T02:47:45.159Z,7.70
2022-11-13T02:50:12.312Z,7.70
2022-11-13T02:52:39.194Z,7.70
2022-11-13T02:55:06.618Z,7.80
2022-11-13T02:57:33.553Z,7.70
2022-11-13T03:00:00.391Z,7.70
2022-11-13T03:02:27.313Z,7.70
2022-11-13T03:07:41.353Z,7.70
2022-11-13T03:10:08.520Z,7.70
2022-11-13T03:12:35.394Z,7.70
2022-11-13T03:15:02.302Z,7.70
2022-11-13T03:17:31.307Z,7.70
2022-11-13T03:19:58.094Z,7.70
2022-11-13T03:22:25.101Z,7.70
2022-11-13T03:24:51.919Z,7.70
2022-11-13T03:27:19.205Z,7.70
2022-11-13T03:29:46.063Z,7.70
2022-11-13T03:32:12.902Z,7.70
2022-11-13T03:34:39.798Z,7.70
2022-11-13T03:37:06.791Z,7.70
2022-11-13T03:39:33.844Z,7.70
2022-11-13T03:42:00.641Z,7.70
2022-11-13T03:44:27.575Z,7.70
2022-11-13T03:46:54.393Z,7.70
2022-11-13T03:49:21.259Z,7.60
2022-11-13T03:51:48.100Z,7.60
2022-11-13T03:54:14.937Z,7.60
2022-11-13T03:56:41.782Z,7.60
2022-11-13T03:59:08.926Z,7.60
2022-11-13T04:01:35.901Z,7.60
2022-11-13T04:04:02.712Z,7.60
2022-11-13T04:06:29.558Z,7.60
2022-11-13T04:08:56.496Z,7.60
2022-11-13T04:11:23.336Z,7.50
2022-11-13T04:13:50.188Z,7.50
2022-11-13T04:16:17.064Z,7.50
2022-11-13T04:18:43.868Z,7.50
2022-11-13T04:21:10.745Z,7.50
2022-11-13T04:23:37.561Z,7.50
2022-11-13T04:26:04.498Z,7.50
2022-11-13T04:28:31.924Z,7.40
2022-11-13T04:30:59.070Z,7.40
2022-11-13T04:33:25.946Z,7.40
2022-11-13T04:35:53.019Z,7.30
2022-11-13T04:38:19.834Z,7.30
2022-11-13T04:40:49.352Z,7.30
2022-11-13T04:43:16.180Z,7.20
2022-11-13T04:45:43.027Z,7.20
2022-11-13T04:48:09.940Z,7.20
2022-11-13T04:50:36.810Z,7.20
2022-11-13T04:53:03.844Z,7.30
2022-11-13T04:55:30.715Z,7.30
2022-11-13T04:57:57.644Z,7.20
2022-11-13T05:00:24.558Z,7.20
2022-11-13T05:02:51.428Z,7.20
2022-11-13T05:05:18.266Z,7.20
2022-11-13T05:07:45.106Z,7.20
2022-11-13T05:10:11.994Z,7.10
2022-11-13T05:12:38.875Z,7.10
2022-11-13T05:15:06.118Z,7.10
2022-11-13T05:17:32.943Z,7.10
2022-11-13T05:20:00.017Z,7.10
2022-11-13T05:22:26.844Z,7.00
2022-11-13T05:24:53.728Z,7.00
2022-11-13T05:27:20.589Z,7.00
2022-11-13T05:29:47.401Z,7.00
2022-11-13T05:32:14.246Z,7.00
2022-11-13T05:34:41.086Z,6.90
2022-11-13T05:37:07.910Z,6.90
2022-11-13T05:39:34.785Z,6.80
2022-11-13T05:42:01.712Z,6.80
2022-11-13T05:44:28.718Z,6.80
2022-11-13T05:46:55.550Z,6.80
2022-11-13T05:49:22.337Z,6.70
2022-11-13T05:51:49.229Z,6.70
2022-11-13T05:54:16.241Z,6.70
2022-11-13T05:56:43.105Z,6.60
2022-11-13T05:59:09.994Z,6.60
2022-11-13T06:01:38.139Z,6.60
2022-11-13T06:04:05.700Z,6.50
2022-11-13T06:06:32.732Z,6.60
2022-11-13T06:09:00.480Z,6.50
2022-11-13T06:11:28.116Z,6.50
2022-11-13T06:13:55.500Z,6.50
2022-11-13T06:16:26.770Z,6.50
2022-11-13T06:19:00.938Z,6.50
2022-11-13T06:21:29.056Z,6.60
2022-11-13T06:23:57.075Z,6.60
2022-11-13T06:26:25.324Z,6.50
2022-11-13T06:28:52.598Z,6.50
2022-11-13T06:31:21.017Z,6.40
2022-11-13T06:33:47.947Z,6.40
2022-11-13T06:36:16.529Z,6.50
2022-11-13T06:38:43.458Z,6.50
2022-11-13T06:41:11.677Z,6.50
2022-11-13T06:43:38.870Z,6.40
2022-11-13T06:46:06.713Z,6.40
2022-11-13T06:48:34.216Z,6.30
2022-11-13T06:51:02.613Z,6.30
2022-11-13T06:53:29.624Z,6.40
2022-11-13T06:55:56.777Z,6.40
2022-11-13T06:58:23.909Z,6.40
2022-11-13T07:00:51.045Z,6.40
2022-11-13T07:03:18.968Z,6.30
2022-11-13T07:05:46.087Z,6.30
2022-11-13T07:08:13.372Z,6.30
2022-11-13T07:10:40.806Z,6.30
2022-11-13T07:13:07.941Z,6.30
2022-11-13T07:15:38.804Z,6.30
2022-11-13T07:18:06.540Z,6.30
2022-11-13T07:20:33.792Z,6.30
2022-11-13T07:23:01.663Z,6.40
2022-11-13T07:25:28.806Z,6.40
2022-11-13T07:27:55.752Z,6.40
2022-11-13T07:30:22.636Z,6.40
2022-11-13T07:32:49.661Z,6.40
2022-11-13T07:35:17.057Z,6.40
2022-11-13T07:37:44.161Z,6.50
2022-11-13T07:40:12.016Z,6.50
2022-11-13T07:42:39.277Z,6.60
2022-11-13T07:45:06.407Z,6.60
2022-11-13T07:47:33.249Z,6.70
2022-11-13T07:50:04.581Z,6.70
2022-11-13T07:52:35.135Z,6.80
2022-11-13T07:55:01.980Z,6.80
2022-11-13T07:57:28.820Z,6.80
2022-11-13T07:59:55.675Z,6.90
2022-11-13T08:02:26.461Z,6.90
2022-11-13T08:04:53.761Z,6.90
2022-11-13T08:07:20.776Z,7.00
2022-11-13T08:09:47.737Z,7.00
2022-11-13T08:12:14.582Z,7.10
2022-11-13T08:14:41.500Z,7.10
2022-11-13T08:17:08.472Z,7.10
2022-11-13T08:19:35.322Z,7.20
2022-11-13T08:22:02.263Z,7.30
2022-11-13T08:24:29.133Z,7.30
2022-11-13T08:26:55.981Z,7.40
2022-11-13T08:29:22.928Z,7.40
2022-11-13T08:31:49.800Z,7.40
2022-11-13T08:34:16.668Z,7.50
2022-11-13T08:36:43.583Z,7.60
2022-11-13T08:39:10.554Z,7.70
2022-11-13T08:41:37.395Z,7.80
2022-11-13T08:44:04.481Z,7.90
2022-11-13T08:46:31.410Z,8.00
2022-11-13T08:48:58.340Z,8.00
2022-11-13T08:53:57.887Z,8.20
2022-11-13T08:56:24.698Z,8.30
2022-11-13T08:58:51.594Z,8.30
2022-11-13T09:01:18.438Z,8.40
2022-11-13T09:03:45.344Z,8.60
2022-11-13T09:06:12.321Z,8.70
2022-11-13T09:08:39.123Z,8.80
2022-11-13T09:11:06.162Z,8.90
2022-11-13T09:13:33.828Z,9.00
2022-11-13T09:16:01.680Z,9.10
2022-11-13T09:18:29.345Z,9.10
2022-11-13T09:21:00.998Z,9.10
2022-11-13T09:23:28.961Z,9.10
2022-11-13T09:25:56.157Z,9.20
2022-11-13T09:28:23.059Z,9.20
2022-11-13T09:30:49.861Z,9.30
2022-11-13T09:33:16.737Z,9.30
2022-11-13T09:35:43.719Z,9.30
2022-11-13T09:38:11.932Z,9.40
2022-11-13T09:40:57.363Z,9.50
2022-11-13T09:43:31.439Z,9.60
2022-11-13T09:46:05.062Z,9.80
2022-11-13T09:48:42.650Z,9.80
2022-11-13T09:51:17.157Z,9.90
2022-11-13T09:53:44.310Z,10.00
2022-11-13T09:56:32.667Z,10.20
2022-11-13T09:58:59.501Z,10.40
2022-11-13T10:01:30.203Z,10.50
2022-11-13T10:04:02.460Z,10.60
2022-11-13T10:06:33.155Z,10.80
2022-11-13T10:09:18.221Z,10.80
2022-11-13T10:11:54.931Z,11.00
2022-11-13T10:14:25.015Z,11.10
2022-11-13T10:16:57.780Z,11.20
2022-11-13T10:19:32.019Z,11.40
2022-11-13T10:22:19.621Z,11.50
2022-11-13T10:24:46.563Z,11.70
2022-11-13T10:27:14.453Z,11.80
2022-11-13T10:29:46.214Z,12.00
2022-11-13T10:32:20.817Z,12.10
2022-11-13T10:34:50.452Z,12.20
2022-11-13T10:37:22.308Z,12.30
2022-11-13T10:39:49.230Z,12.40
2022-11-13T10:42:23.668Z,12.50
2022-11-13T10:44:54.953Z,12.50
2022-11-13T10:50:13.286Z,12.50
2022-11-13T10:52:48.490Z,12.60
2022-11-13T10:55:18.407Z,12.60
2022-11-13T10:57:56.504Z,12.60
2022-11-13T11:00:25.819Z,12.80
2022-11-13T11:02:52.746Z,12.90
2022-11-13T11:05:21.056Z,13.10
2022-11-13T11:07:48.351Z,13.30
2022-11-13T11:10:29.066Z,13.40
2022-11-13T11:13:12.795Z,13.60
2022-11-13T11:15:59.704Z,13.80
2022-11-13T11:18:29.344Z,14.00
2022-11-13T11:21:02.190Z,14.20
2022-11-13T11:23:29.027Z,14.40
2022-11-13T11:26:22.090Z,14.50
2022-11-13T11:29:07.422Z,14.60
2022-11-13T11:31:46.613Z,14.80
2022-11-13T11:34:25.777Z,14.90
2022-11-13T11:36:52.970Z,15.10
2022-11-13T11:39:20.347Z,15.20
2022-11-13T11:41:53.384Z,15.30
2022-11-13T11:44:39.822Z,15.40
2022-11-13T11:47:18.048Z,15.40
2022-11-13T11:49:45.676Z,15.60
2022-11-13T11:52:31.572Z,15.70
2022-11-13T11:55:01.494Z,15.70
2022-11-13T11:57:46.429Z,15.80
2022-11-13T12:00:15.173Z,15.90
2022-11-13T12:03:01.440Z,15.80
2022-11-13T12:05:33.271Z,16.00
2022-11-13T12:08:09.249Z,16.10
2022-11-13T12:10:55.033Z,16.20
2022-11-13T12:13:32.791Z,16.30
2022-11-13T12:16:02.657Z,16.40
2022-11-13T12:18:39.723Z,16.50
2022-11-13T12:21:21.653Z,16.70
2022-11-13T12:23:48.621Z,16.90
2022-11-13T12:26:30.878Z,17.00
2022-11-13T12:29:10.932Z,17.20
2022-11-13T12:31:44.629Z,17.30
2022-11-13T12:34:11.527Z,17.40
2022-11-13T12:36:38.772Z,17.50
2022-11-13T12:39:05.660Z,17.60
2022-11-13T12:41:54.350Z,17.70
2022-11-13T12:44:29.154Z,17.80
2022-11-13T12:46:57.118Z,17.90
2022-11-13T12:49:23.963Z,18.00
2022-11-13T12:51:58.408Z,18.00
2022-11-13T12:54:25.966Z,18.10
2022-11-13T12:56:52.928Z,18.20
2022-11-13T12:59:35.872Z,18.20
2022-11-13T13:02:08.995Z,18.30
2022-11-13T13:04:38.943Z,18.40
2022-11-13T13:07:17.984Z,18.40
2022-11-13T13:09:51.330Z,18.50
2022-11-13T13:12:33.192Z,18.50
2022-11-13T13:15:20.325Z,18.60
2022-11-13T13:17:47.188Z,18.60
2022-11-13T13:20:16.846Z,18.60
2022-11-13T13:22:43.729Z,18.70
2022-11-13T13:25:23.063Z,18.70
2022-11-13T13:28:03.317Z,18.80
2022-11-13T13:30:34.063Z,18.80
2022-11-13T13:33:19.652Z,18.70
2022-11-13T13:35:55.090Z,18.80
2022-11-13T13:38:30.216Z,18.90
2022-11-13T13:41:17.130Z,19.00
2022-11-13T13:43:51.646Z,18.90
2022-11-13T13:46:29.795Z,18.90
2022-11-13T13:49:02.228Z,19.00
2022-11-13T13:51:31.771Z,19.00
2022-11-13T13:53:59.660Z,18.90
2022-11-13T13:56:27.022Z,18.90
2022-11-13T13:58:54.111Z,18.90
2022-11-13T14:01:31.164Z,19.00
2022-11-13T14:04:13.081Z,19.00
2022-11-13T14:06:50.764Z,19.00
2022-11-13T14:09:19.627Z,19.10
2022-11-13T14:11:48.048Z,19.20
2022-11-13T14:14:19.708Z,19.20
2022-11-13T14:16:47.398Z,19.30
2022-11-13T14:19:14.532Z,19.30
2022-11-13T14:25:26.077Z,19.30
2022-11-13T14:27:53.118Z,19.60
2022-11-13T14:30:27.139Z,19.90
2022-11-13T14:32:54.671Z,20.10
2022-11-13T14:35:22.923Z,20.30
2022-11-13T14:37:50.482Z,20.50
2022-11-13T14:40:28.064Z,20.60
2022-11-13T14:42:59.817Z,20.70
2022-11-13T14:45:28.022Z,20.80
2022-11-13T14:47:59.648Z,20.80
2022-11-13T14:50:28.852Z,20.90
2022-11-13T14:52:58.697Z,20.90
2022-11-13T14:55:27.450Z,20.90
2022-11-13T14:57:54.312Z,20.90
2022-11-13T15:00:35.674Z,20.90
2022-11-13T15:03:03.886Z,20.90
2022-11-13T15:05:30.894Z,20.90
2022-11-13T15:07:57.929Z,20.90
2022-11-13T15:10:26.426Z,20.90
2022-11-13T15:12:53.688Z,20.70
2022-11-13T15:15:30.854Z,20.60
2022-11-13T15:18:00.132Z,20.50
2022-11-13T15:20:27.958Z,20.40
2022-11-13T15:22:55.203Z,20.30
2022-11-13T15:25:22.640Z,20.20
2022-11-13T15:27:49.529Z,20.10
2022-11-13T15:30:16.724Z,19.90
2022-11-13T15:32:43.721Z,19.80
2022-11-13T15:35:15.230Z,19.60
2022-11-13T15:37:43.134Z,19.40
2022-11-13T15:40:10.776Z,19.30
2022-11-13T15:42:37.789Z,19.10
2022-11-13T15:45:06.373Z,18.90
2022-11-13T15:47:36.856Z,18.70
2022-11-13T15:50:20.435Z,18.60
2022-11-13T15:52:49.218Z,18.40
2022-11-13T15:55:22.383Z,18.10
2022-11-13T15:57:49.465Z,17.80
2022-11-13T16:00:17.605Z,17.60
2022-11-13T16:02:44.578Z,17.50
2022-11-13T16:05:11.522Z,17.20
2022-11-13T16:07:41.258Z,16.90
2022-11-13T16:10:09.721Z,16.70
2022-11-13T16:12:36.653Z,16.50
2022-11-13T16:15:03.742Z,16.30
2022-11-13T16:17:31.981Z,16.00
2022-11-13T16:19:58.816Z,15.80
2022-11-13T16:24:54.090Z,15.60
2022-11-13T16:27:28.357Z,15.40
2022-11-13T16:29:55.502Z,15.40
2022-11-13T16:32:22.823Z,15.20
2022-11-13T16:34:49.771Z,15.10
2022-11-13T16:37:20.580Z,15.00
2022-11-13T16:39:47.837Z,14.80
2022-11-13T16:42:15.284Z,14.70
2022-11-13T16:44:42.752Z,14.50
2022-11-13T16:47:27.658Z,14.40
2022-11-13T16:49:54.656Z,14.30
2022-11-13T16:52:21.704Z,14.10
2022-11-13T16:54:48.832Z,14.00
2022-11-13T16:57:17.187Z,13.90
2022-11-13T16:59:44.272Z,13.80
2022-11-13T17:02:16.487Z,13.70
2022-11-13T17:04:43.940Z,13.60
2022-11-13T17:07:11.901Z,13.50
2022-11-13T17:09:39.732Z,13.40
2022-11-13T17:12:06.575Z,13.30
2022-11-13T17:14:35.200Z,13.20
2022-11-13T17:17:02.848Z,13.00
2022-11-13T17:19:29.869Z,12.90
2022-11-13T17:21:57.060Z,12.90
2022-11-13T17:24:23.884Z,12.80
2022-11-13T17:26:50.767Z,12.50
2022-11-13T17:29:18.007Z,12.30
2022-11-13T17:31:44.853Z,12.20
2022-11-13T17:34:11.763Z,12.20
2022-11-13T17:36:38.707Z,12.10
2022-11-13T17:39:05.747Z,12.10
2022-11-13T17:41:32.672Z,12.00
2022-11-13T17:44:01.375Z,12.00
2022-11-13T17:46:28.563Z,11.90
2022-11-13T17:48:55.643Z,11.80
2022-11-13T17:51:22.521Z,11.70
2022-11-13T17:53:49.402Z,11.60
2022-11-13T17:56:16.276Z,11.60
2022-11-13T17:58:44.320Z,11.50
2022-11-13T18:01:15.359Z,11.40
2022-11-13T18:03:42.537Z,11.30
2022-11-13T18:06:13.255Z,11.20
2022-11-13T18:08:43.895Z,11.20
2022-11-13T18:11:12.652Z,11.20
2022-11-13T18:13:42.077Z,11.20
2022-11-13T18:16:10.597Z,11.20
2022-11-13T18:18:37.478Z,11.20
2022-11-13T18:21:23.236Z,11.10
2022-11-13T18:23:56.094Z,11.10
2022-11-13T18:26:22.957Z,11.10
2022-11-13T18:28:49.770Z,11.10
2022-11-13T18:31:17.902Z,11.00
2022-11-13T18:33:45.075Z,11.00
2022-11-13T18:36:12.110Z,10.90
2022-11-13T18:38:38.975Z,10.80
2022-11-13T18:41:07.170Z,10.70
2022-11-13T18:43:34.167Z,10.70
2022-11-13T18:46:05.102Z,10.60
2022-11-13T18:48:32.774Z,10.60
2022-11-13T18:51:01.044Z,10.50
2022-11-13T18:53:28.650Z,10.60
2022-11-13T18:56:06.202Z,10.60
2022-11-13T18:58:35.807Z,10.60
2022-11-13T19:01:10.207Z,10.50
2022-11-13T19:03:37.199Z,10.40
2022-11-13T19:06:07.496Z,10.30
2022-11-13T19:08:38.279Z,10.20
2022-11-13T19:11:08.760Z,10.20
2022-11-13T19:13:35.703Z,10.20
2022-11-13T19:16:06.432Z,10.20
2022-11-13T19:18:33.304Z,10.10
2022-11-13T19:21:04.242Z,10.10
2022-11-13T19:23:31.425Z,10.00
2022-11-13T19:25:58.544Z,9.90
2022-11-13T19:28:25.846Z,9.90
2022-11-13T19:30:55.167Z,9.90
2022-11-13T19:33:22.923Z,9.80
2022-11-13T19:35:50.807Z,9.70
2022-11-13T19:38:17.940Z,9.70
2022-11-13T19:40:46.822Z,9.60
2022-11-13T19:43:13.663Z,9.60
2022-11-13T19:45:40.482Z,9.60
2022-11-13T19:48:07.493Z,9.50
2022-11-13T19:50:34.355Z,9.50
2022-11-13T19:53:01.173Z,9.40
2022-11-13T19:55:28.111Z,9.50
2022-11-13T19:57:55.083Z,9.40
2022-11-13T20:00:22.210Z,9.40
2022-11-13T20:02:49.165Z,9.30
2022-11-13T20:05:16.411Z,9.30
2022-11-13T20:07:43.418Z,9.20
2022-11-13T20:10:10.501Z,9.20
2022-11-13T20:12:37.359Z,9.10
2022-11-13T20:15:04.417Z,9.10
2022-11-13T20:17:31.403Z,9.00
2022-11-13T20:19:58.245Z,9.00
2022-11-13T20:22:25.387Z,9.00
2022-11-13T20:24:52.370Z,9.00
2022-11-13T20:27:19.383Z,8.90
2022-11-13T20:29:46.327Z,8.90
2022-11-13T20:32:13.135Z,8.90
2022-11-13T20:34:40.008Z,8.80
2022-11-13T20:37:06.936Z,8.80
2022-11-13T20:39:33.806Z,8.70
2022-11-13T20:42:00.639Z,8.70
2022-11-13T20:44:27.483Z,8.70
2022-11-13T20:46:54.327Z,8.70
2022-11-13T20:49:21.215Z,8.60
2022-11-13T20:51:48.043Z,8.50
2022-11-13T20:54:14.888Z,8.50
2022-11-13T20:56:41.792Z,8.50
2022-11-13T20:59:08.910Z,8.50
2022-11-13T21:01:37.236Z,8.40
2022-11-13T21:04:04.183Z,8.40
2022-11-13T21:06:31.181Z,8.40
2022-11-13T21:08:58.259Z,8.30
2022-11-13T21:11:29.606Z,8.20
2022-11-13T21:13:57.671Z,8.20
2022-11-13T21:16:25.061Z,8.20
2022-11-13T21:18:51.922Z,8.10
2022-11-13T21:21:20.328Z,8.10
2022-11-13T21:23:48.049Z,8.10
2022-11-13T21:26:15.122Z,8.00
2022-11-13T21:28:42.030Z,8.00
2022-11-13T21:31:19.195Z,8.00
2022-11-13T21:33:46.678Z,8.00
2022-11-13T21:36:15.551Z,7.90
2022-11-13T21:38:42.796Z,7.80
2022-11-13T21:41:23.434Z,7.80
2022-11-13T21:44:00.672Z,7.80
2022-11-13T21:46:29.075Z,7.70
2022-11-13T21:48:57.393Z,7.70
2022-11-13T21:51:24.289Z,7.60
2022-11-13T21:53:51.181Z,7.60
2022-11-13T21:56:18.203Z,7.60
2022-11-13T21:58:45.118Z,7.50
2022-11-13T22:01:12.319Z,7.50
2022-11-13T22:03:39.472Z,7.40
2022-11-13T22:06:15.486Z,7.50
2022-11-13T22:08:43.142Z,7.50
2022-11-13T22:11:10.285Z,7.40
2022-11-13T22:13:37.639Z,7.30
2022-11-13T22:16:08.274Z,7.30
2022-11-13T22:18:35.444Z,7.30
2022-11-13T22:21:06.935Z,7.20
2022-11-13T22:23:34.183Z,7.10
2022-11-13T22:26:04.965Z,7.10
2022-11-13T22:28:34.580Z,7.10
2022-11-13T22:31:01.570Z,7.00
2022-11-13T22:33:29.437Z,6.80
2022-11-13T22:36:10.100Z,6.60
2022-11-13T22:38:37.372Z,6.50
2022-11-13T22:41:05.166Z,6.60
2022-11-13T22:43:32.920Z,6.60
2022-11-13T22:46:03.907Z,6.70
2022-11-13T22:48:31.046Z,6.70
2022-11-13T22:51:02.744Z,6.70
2022-11-13T22:53:29.596Z,6.70
2022-11-13T22:56:00.905Z,6.70
2022-11-13T22:58:28.684Z,6.60
2022-11-13T23:00:55.865Z,6.60
2022-11-13T23:03:22.841Z,6.60
2022-11-13T23:05:49.734Z,6.60
2022-11-13T23:08:16.661Z,6.60
2022-11-13T23:10:43.522Z,6.60
2022-11-13T23:13:10.376Z,6.60
2022-11-13T23:15:37.223Z,6.60
2022-11-13T23:18:08.638Z,6.60
2022-11-13T23:20:43.791Z,6.60
2022-11-13T23:23:10.850Z,6.50
2022-11-13T23:25:37.670Z,6.50
2022-11-13T23:28:04.637Z,6.40
2022-11-13T23:30:31.520Z,6.30
2022-11-13T23:32:58.395Z,6.30
2022-11-13T23:35:25.221Z,6.30
2022-11-13T23:37:52.104Z,6.30
2022-11-13T23:40:19.496Z,6.30
2022-11-13T23:42:55.177Z,6.30
2022-11-13T23:45:22.358Z,6.20
2022-11-13T23:47:49.374Z,6.20
2022-11-13T23:50:16.313Z,6.20
2022-11-13T23:52:43.202Z,6.10
2022-11-13T23:55:10.553Z,6.00
2022-11-13T23:57:37.441Z,6.00
